sensor_id;sensor_type;location;lat;lon;timestamp;P1;durP1;ratioP1;P2;durP2;ratioP2
10452;SDS011;5274;51.992;8.518;2024-03-17T00:01:32;18.00;;;16.55;;
10452;SDS011;5274;51.992;8.518;2024-03-17T00:03:57;17.33;;;16.13;;
10452;SDS011;5274;51.992;8.518;2024-03-17T00:06:24;17.20;;;16.30;;
10452;SDS011;5274;51.992;8.518;2024-03-17T00:08:49;17.90;;;16.83;;
10452;SDS011;5274;51.992;8.518;2024-03-17T00:11:15;17.63;;;16.60;;
10452;SDS011;5274;51.992;8.518;2024-03-17T00:13:41;17.92;;;16.70;;
10452;SDS011;5274;51.992;8.518;2024-03-17T00:16:06;18.30;;;17.03;;
10452;SDS011;5274;51.992;8.518;2024-03-17T00:18:32;18.27;;;16.88;;
10452;SDS011;5274;51.992;8.518;2024-03-17T00:20:57;18.10;;;16.80;;
10452;SDS011;5274;51.992;8.518;2024-03-17T00:23:24;18.23;;;17.02;;
10452;SDS011;5274;51.992;8.518;2024-03-17T00:25:50;17.97;;;16.97;;
10452;SDS011;5274;51.992;8.518;2024-03-17T00:28:18;18.38;;;17.23;;
10452;SDS011;5274;51.992;8.518;2024-03-17T00:30:45;18.10;;;17.00;;
10452;SDS011;5274;51.992;8.518;2024-03-17T00:33:11;17.90;;;16.80;;
10452;SDS011;5274;51.992;8.518;2024-03-17T00:35:36;17.90;;;16.80;;
10452;SDS011;5274;51.992;8.518;2024-03-17T00:38:02;17.60;;;16.50;;
10452;SDS011;5274;51.992;8.518;2024-03-17T00:40:34;17.60;;;16.60;;
10452;SDS011;5274;51.992;8.518;2024-03-17T00:43:01;17.08;;;15.98;;
10452;SDS011;5274;51.992;8.518;2024-03-17T00:45:26;17.20;;;16.03;;
10452;SDS011;5274;51.992;8.518;2024-03-17T00:47:52;17.85;;;16.70;;
10452;SDS011;5274;51.992;8.518;2024-03-17T00:50:17;17.07;;;15.90;;
10452;SDS011;5274;51.992;8.518;2024-03-17T00:52:43;17.20;;;16.20;;
10452;SDS011;5274;51.992;8.518;2024-03-17T00:55:09;17.67;;;16.67;;
10452;SDS011;5274;51.992;8.518;2024-03-17T00:57:35;17.98;;;16.75;;
10452;SDS011;5274;51.992;8.518;2024-03-17T01:00:02;18.08;;;16.98;;
10452;SDS011;5274;51.992;8.518;2024-03-17T01:02:28;18.03;;;16.80;;
10452;SDS011;5274;51.992;8.518;2024-03-17T01:04:54;18.17;;;16.98;;
10452;SDS011;5274;51.992;8.518;2024-03-17T01:07:19;18.20;;;17.10;;
10452;SDS011;5274;51.992;8.518;2024-03-17T01:09:46;18.20;;;17.00;;
10452;SDS011;5274;51.992;8.518;2024-03-17T01:12:13;18.60;;;17.20;;
10452;SDS011;5274;51.992;8.518;2024-03-17T01:14:38;18.40;;;17.20;;
10452;SDS011;5274;51.992;8.518;2024-03-17T01:17:04;18.13;;;16.83;;
10452;SDS011;5274;51.992;8.518;2024-03-17T01:19:33;18.27;;;17.17;;
10452;SDS011;5274;51.992;8.518;2024-03-17T01:22:00;18.70;;;17.40;;
10452;SDS011;5274;51.992;8.518;2024-03-17T01:24:26;19.05;;;17.75;;
10452;SDS011;5274;51.992;8.518;2024-03-17T01:26:56;18.52;;;17.40;;
10452;SDS011;5274;51.992;8.518;2024-03-17T01:29:22;19.08;;;17.77;;
10452;SDS011;5274;51.992;8.518;2024-03-17T01:31:48;19.05;;;17.77;;
10452;SDS011;5274;51.992;8.518;2024-03-17T01:34:13;19.77;;;18.30;;
10452;SDS011;5274;51.992;8.518;2024-03-17T01:36:39;19.17;;;17.70;;
10452;SDS011;5274;51.992;8.518;2024-03-17T01:39:04;19.10;;;17.90;;
10452;SDS011;5274;51.992;8.518;2024-03-17T01:41:30;18.73;;;17.63;;
10452;SDS011;5274;51.992;8.518;2024-03-17T01:43:56;19.00;;;17.60;;
10452;SDS011;5274;51.992;8.518;2024-03-17T01:46:23;19.33;;;18.08;;
10452;SDS011;5274;51.992;8.518;2024-03-17T01:48:49;18.65;;;17.55;;
10452;SDS011;5274;51.992;8.518;2024-03-17T01:51:16;18.95;;;17.75;;
10452;SDS011;5274;51.992;8.518;2024-03-17T01:53:43;19.30;;;18.00;;
10452;SDS011;5274;51.992;8.518;2024-03-17T01:56:11;19.40;;;18.00;;
10452;SDS011;5274;51.992;8.518;2024-03-17T01:58:38;19.57;;;18.27;;
10452;SDS011;5274;51.992;8.518;2024-03-17T02:01:06;19.25;;;18.05;;
10452;SDS011;5274;51.992;8.518;2024-03-17T02:03:32;20.17;;;18.67;;
10452;SDS011;5274;51.992;8.518;2024-03-17T02:05:58;20.03;;;18.60;;
10452;SDS011;5274;51.992;8.518;2024-03-17T02:08:24;19.57;;;18.17;;
10452;SDS011;5274;51.992;8.518;2024-03-17T02:10:54;19.88;;;18.58;;
10452;SDS011;5274;51.992;8.518;2024-03-17T02:13:20;19.40;;;18.10;;
10452;SDS011;5274;51.992;8.518;2024-03-17T02:15:46;19.60;;;18.30;;
10452;SDS011;5274;51.992;8.518;2024-03-17T02:18:12;19.40;;;18.30;;
10452;SDS011;5274;51.992;8.518;2024-03-17T02:20:38;19.58;;;18.27;;
10452;SDS011;5274;51.992;8.518;2024-03-17T02:23:23;20.27;;;18.67;;
10452;SDS011;5274;51.992;8.518;2024-03-17T02:25:51;19.40;;;18.20;;
10452;SDS011;5274;51.992;8.518;2024-03-17T02:28:17;19.85;;;18.45;;
10452;SDS011;5274;51.992;8.518;2024-03-17T02:30:43;19.43;;;18.23;;
10452;SDS011;5274;51.992;8.518;2024-03-17T02:33:08;19.83;;;18.53;;
10452;SDS011;5274;51.992;8.518;2024-03-17T02:35:33;20.30;;;18.80;;
10452;SDS011;5274;51.992;8.518;2024-03-17T02:37:59;19.63;;;18.33;;
10452;SDS011;5274;51.992;8.518;2024-03-17T02:40:24;19.70;;;18.40;;
10452;SDS011;5274;51.992;8.518;2024-03-17T02:42:50;19.50;;;18.30;;
10452;SDS011;5274;51.992;8.518;2024-03-17T02:45:15;19.10;;;17.90;;
10452;SDS011;5274;51.992;8.518;2024-03-17T02:47:41;19.08;;;17.92;;
10452;SDS011;5274;51.992;8.518;2024-03-17T02:50:07;19.27;;;17.93;;
10452;SDS011;5274;51.992;8.518;2024-03-17T02:52:34;19.27;;;17.98;;
10452;SDS011;5274;51.992;8.518;2024-03-17T02:54:59;19.05;;;17.75;;
10452;SDS011;5274;51.992;8.518;2024-03-17T02:57:25;18.83;;;17.63;;
10452;SDS011;5274;51.992;8.518;2024-03-17T02:59:54;18.70;;;17.40;;
10452;SDS011;5274;51.992;8.518;2024-03-17T03:02:23;19.33;;;17.83;;
10452;SDS011;5274;51.992;8.518;2024-03-17T03:04:49;18.88;;;17.58;;
10452;SDS011;5274;51.992;8.518;2024-03-17T03:07:15;18.90;;;17.53;;
10452;SDS011;5274;51.992;8.518;2024-03-17T03:09:40;19.08;;;17.77;;
10452;SDS011;5274;51.992;8.518;2024-03-17T03:12:06;19.83;;;17.90;;
10452;SDS011;5274;51.992;8.518;2024-03-17T03:14:32;18.77;;;17.38;;
10452;SDS011;5274;51.992;8.518;2024-03-17T03:16:58;18.98;;;17.73;;
10452;SDS011;5274;51.992;8.518;2024-03-17T03:19:24;19.23;;;17.77;;
10452;SDS011;5274;51.992;8.518;2024-03-17T03:21:50;18.75;;;17.35;;
10452;SDS011;5274;51.992;8.518;2024-03-17T03:24:16;18.90;;;17.38;;
10452;SDS011;5274;51.992;8.518;2024-03-17T03:26:42;18.60;;;17.13;;
10452;SDS011;5274;51.992;8.518;2024-03-17T03:29:08;18.08;;;16.67;;
10452;SDS011;5274;51.992;8.518;2024-03-17T03:31:35;17.92;;;16.52;;
10452;SDS011;5274;51.992;8.518;2024-03-17T03:34:00;17.67;;;16.60;;
10452;SDS011;5274;51.992;8.518;2024-03-17T03:36:27;18.02;;;16.75;;
10452;SDS011;5274;51.992;8.518;2024-03-17T03:38:52;19.17;;;17.80;;
10452;SDS011;5274;51.992;8.518;2024-03-17T03:41:18;18.90;;;17.47;;
10452;SDS011;5274;51.992;8.518;2024-03-17T03:43:44;18.63;;;17.42;;
10452;SDS011;5274;51.992;8.518;2024-03-17T03:46:11;19.13;;;17.83;;
10452;SDS011;5274;51.992;8.518;2024-03-17T03:48:37;18.77;;;17.37;;
10452;SDS011;5274;51.992;8.518;2024-03-17T03:51:03;18.85;;;17.23;;
10452;SDS011;5274;51.992;8.518;2024-03-17T03:53:30;18.65;;;17.42;;
10452;SDS011;5274;51.992;8.518;2024-03-17T03:55:56;20.23;;;18.70;;
10452;SDS011;5274;51.992;8.518;2024-03-17T03:58:22;19.35;;;18.05;;
10452;SDS011;5274;51.992;8.518;2024-03-17T04:00:47;18.63;;;17.33;;
10452;SDS011;5274;51.992;8.518;2024-03-17T04:03:13;18.67;;;17.30;;
10452;SDS011;5274;51.992;8.518;2024-03-17T04:05:38;18.77;;;17.47;;
10452;SDS011;5274;51.992;8.518;2024-03-17T04:08:04;18.07;;;16.87;;
10452;SDS011;5274;51.992;8.518;2024-03-17T04:10:30;18.38;;;17.17;;
10452;SDS011;5274;51.992;8.518;2024-03-17T04:12:55;18.27;;;17.05;;
10452;SDS011;5274;51.992;8.518;2024-03-17T04:15:22;18.48;;;17.10;;
10452;SDS011;5274;51.992;8.518;2024-03-17T04:17:48;18.40;;;17.10;;
10452;SDS011;5274;51.992;8.518;2024-03-17T04:20:14;18.38;;;17.05;;
10452;SDS011;5274;51.992;8.518;2024-03-17T04:22:42;18.38;;;17.00;;
10452;SDS011;5274;51.992;8.518;2024-03-17T04:25:08;19.08;;;17.58;;
10452;SDS011;5274;51.992;8.518;2024-03-17T04:27:34;18.65;;;17.23;;
10452;SDS011;5274;51.992;8.518;2024-03-17T04:30:00;18.10;;;16.90;;
10452;SDS011;5274;51.992;8.518;2024-03-17T04:32:26;18.30;;;17.08;;
10452;SDS011;5274;51.992;8.518;2024-03-17T04:34:52;18.40;;;17.00;;
10452;SDS011;5274;51.992;8.518;2024-03-17T04:37:17;18.17;;;16.77;;
10452;SDS011;5274;51.992;8.518;2024-03-17T04:39:44;18.00;;;16.73;;
10452;SDS011;5274;51.992;8.518;2024-03-17T04:42:11;18.10;;;16.88;;
10452;SDS011;5274;51.992;8.518;2024-03-17T04:44:39;18.35;;;17.08;;
10452;SDS011;5274;51.992;8.518;2024-03-17T04:47:05;18.17;;;16.90;;
10452;SDS011;5274;51.992;8.518;2024-03-17T04:49:38;18.60;;;17.20;;
10452;SDS011;5274;51.992;8.518;2024-03-17T04:52:05;18.63;;;17.08;;
10452;SDS011;5274;51.992;8.518;2024-03-17T04:54:32;18.77;;;17.45;;
10452;SDS011;5274;51.992;8.518;2024-03-17T04:56:57;18.90;;;17.60;;
10452;SDS011;5274;51.992;8.518;2024-03-17T04:59:23;20.08;;;18.52;;
10452;SDS011;5274;51.992;8.518;2024-03-17T05:01:49;20.33;;;18.70;;
10452;SDS011;5274;51.992;8.518;2024-03-17T05:04:14;20.03;;;18.53;;
10452;SDS011;5274;51.992;8.518;2024-03-17T05:06:40;19.83;;;18.50;;
10452;SDS011;5274;51.992;8.518;2024-03-17T05:09:07;20.13;;;18.73;;
10452;SDS011;5274;51.992;8.518;2024-03-17T05:11:33;20.90;;;19.38;;
10452;SDS011;5274;51.992;8.518;2024-03-17T05:14:00;20.05;;;18.70;;
10452;SDS011;5274;51.992;8.518;2024-03-17T05:16:26;20.70;;;19.30;;
10452;SDS011;5274;51.992;8.518;2024-03-17T05:18:54;20.55;;;19.15;;
10452;SDS011;5274;51.992;8.518;2024-03-17T05:21:20;21.27;;;19.58;;
10452;SDS011;5274;51.992;8.518;2024-03-17T05:23:47;21.30;;;19.90;;
10452;SDS011;5274;51.992;8.518;2024-03-17T05:26:13;20.38;;;19.08;;
10452;SDS011;5274;51.992;8.518;2024-03-17T05:28:39;20.90;;;19.30;;
10452;SDS011;5274;51.992;8.518;2024-03-17T05:31:04;21.15;;;19.60;;
10452;SDS011;5274;51.992;8.518;2024-03-17T05:33:30;20.13;;;18.70;;
10452;SDS011;5274;51.992;8.518;2024-03-17T05:35:56;20.38;;;18.98;;
10452;SDS011;5274;51.992;8.518;2024-03-17T05:38:23;21.38;;;19.70;;
10452;SDS011;5274;51.992;8.518;2024-03-17T05:40:57;21.20;;;19.80;;
10452;SDS011;5274;51.992;8.518;2024-03-17T05:43:30;20.55;;;19.15;;
10452;SDS011;5274;51.992;8.518;2024-03-17T05:46:06;20.88;;;19.48;;
10452;SDS011;5274;51.992;8.518;2024-03-17T05:48:36;20.52;;;19.17;;
10452;SDS011;5274;51.992;8.518;2024-03-17T05:51:05;20.90;;;19.40;;
10452;SDS011;5274;51.992;8.518;2024-03-17T05:53:32;20.92;;;19.50;;
10452;SDS011;5274;51.992;8.518;2024-03-17T05:56:01;20.67;;;19.13;;
10452;SDS011;5274;51.992;8.518;2024-03-17T05:58:27;21.65;;;19.98;;
10452;SDS011;5274;51.992;8.518;2024-03-17T06:00:54;20.45;;;18.80;;
10452;SDS011;5274;51.992;8.518;2024-03-17T06:03:19;18.80;;;17.60;;
10452;SDS011;5274;51.992;8.518;2024-03-17T06:05:46;19.58;;;18.08;;
10452;SDS011;5274;51.992;8.518;2024-03-17T06:08:12;19.17;;;17.87;;
10452;SDS011;5274;51.992;8.518;2024-03-17T06:10:42;19.87;;;18.30;;
10452;SDS011;5274;51.992;8.518;2024-03-17T06:13:09;19.92;;;18.30;;
10452;SDS011;5274;51.992;8.518;2024-03-17T06:15:38;20.20;;;18.67;;
10452;SDS011;5274;51.992;8.518;2024-03-17T06:18:04;20.73;;;18.73;;
10452;SDS011;5274;51.992;8.518;2024-03-17T06:20:31;20.15;;;18.75;;
10452;SDS011;5274;51.992;8.518;2024-03-17T06:22:57;20.60;;;18.87;;
10452;SDS011;5274;51.992;8.518;2024-03-17T06:25:22;20.60;;;19.10;;
10452;SDS011;5274;51.992;8.518;2024-03-17T06:27:51;19.77;;;18.38;;
10452;SDS011;5274;51.992;8.518;2024-03-17T06:30:17;19.85;;;18.45;;
10452;SDS011;5274;51.992;8.518;2024-03-17T06:32:43;20.38;;;19.05;;
10452;SDS011;5274;51.992;8.518;2024-03-17T06:35:13;20.83;;;19.33;;
10452;SDS011;5274;51.992;8.518;2024-03-17T06:37:40;20.52;;;19.13;;
10452;SDS011;5274;51.992;8.518;2024-03-17T06:40:10;20.42;;;18.98;;
10452;SDS011;5274;51.992;8.518;2024-03-17T06:42:39;21.17;;;19.70;;
10452;SDS011;5274;51.992;8.518;2024-03-17T06:45:05;20.95;;;19.38;;
10452;SDS011;5274;51.992;8.518;2024-03-17T06:47:33;20.13;;;18.63;;
10452;SDS011;5274;51.992;8.518;2024-03-17T06:49:59;20.35;;;18.65;;
10452;SDS011;5274;51.992;8.518;2024-03-17T06:52:24;20.60;;;18.90;;
10452;SDS011;5274;51.992;8.518;2024-03-17T06:54:49;20.95;;;19.15;;
10452;SDS011;5274;51.992;8.518;2024-03-17T06:57:15;21.10;;;19.37;;
10452;SDS011;5274;51.992;8.518;2024-03-17T06:59:41;19.98;;;18.48;;
10452;SDS011;5274;51.992;8.518;2024-03-17T07:02:06;21.20;;;19.60;;
10452;SDS011;5274;51.992;8.518;2024-03-17T07:04:32;20.92;;;19.17;;
10452;SDS011;5274;51.992;8.518;2024-03-17T07:07:00;21.05;;;19.40;;
10452;SDS011;5274;51.992;8.518;2024-03-17T07:09:26;20.53;;;18.93;;
10452;SDS011;5274;51.992;8.518;2024-03-17T07:11:51;21.30;;;19.50;;
10452;SDS011;5274;51.992;8.518;2024-03-17T07:14:18;21.30;;;19.70;;
10452;SDS011;5274;51.992;8.518;2024-03-17T07:16:43;21.88;;;20.02;;
10452;SDS011;5274;51.992;8.518;2024-03-17T07:19:09;21.60;;;20.00;;
10452;SDS011;5274;51.992;8.518;2024-03-17T07:21:34;21.50;;;19.70;;
10452;SDS011;5274;51.992;8.518;2024-03-17T07:24:00;21.25;;;19.63;;
10452;SDS011;5274;51.992;8.518;2024-03-17T07:26:29;21.23;;;19.47;;
10452;SDS011;5274;51.992;8.518;2024-03-17T07:28:55;20.67;;;19.15;;
10452;SDS011;5274;51.992;8.518;2024-03-17T07:31:21;20.63;;;19.10;;
10452;SDS011;5274;51.992;8.518;2024-03-17T07:33:46;21.37;;;19.50;;
10452;SDS011;5274;51.992;8.518;2024-03-17T07:36:13;20.35;;;18.80;;
10452;SDS011;5274;51.992;8.518;2024-03-17T07:38:38;21.13;;;19.30;;
10452;SDS011;5274;51.992;8.518;2024-03-17T07:41:04;20.67;;;19.08;;
10452;SDS011;5274;51.992;8.518;2024-03-17T07:43:31;21.30;;;19.70;;
10452;SDS011;5274;51.992;8.518;2024-03-17T07:46:01;21.30;;;19.70;;
10452;SDS011;5274;51.992;8.518;2024-03-17T07:48:32;21.17;;;19.52;;
10452;SDS011;5274;51.992;8.518;2024-03-17T07:50:59;21.50;;;19.70;;
10452;SDS011;5274;51.992;8.518;2024-03-17T07:53:28;21.10;;;19.50;;
10452;SDS011;5274;51.992;8.518;2024-03-17T07:56:02;21.92;;;20.13;;
10452;SDS011;5274;51.992;8.518;2024-03-17T07:58:29;21.90;;;20.10;;
10452;SDS011;5274;51.992;8.518;2024-03-17T08:00:58;21.48;;;19.77;;
10452;SDS011;5274;51.992;8.518;2024-03-17T08:03:25;21.08;;;19.58;;
10452;SDS011;5274;51.992;8.518;2024-03-17T08:05:51;22.07;;;20.20;;
10452;SDS011;5274;51.992;8.518;2024-03-17T08:08:17;22.23;;;20.30;;
10452;SDS011;5274;51.992;8.518;2024-03-17T08:10:44;21.48;;;19.67;;
10452;SDS011;5274;51.992;8.518;2024-03-17T08:13:11;21.38;;;19.67;;
10452;SDS011;5274;51.992;8.518;2024-03-17T08:15:38;22.50;;;20.80;;
10452;SDS011;5274;51.992;8.518;2024-03-17T08:18:04;22.65;;;20.75;;
10452;SDS011;5274;51.992;8.518;2024-03-17T08:20:35;23.50;;;21.50;;
10452;SDS011;5274;51.992;8.518;2024-03-17T08:23:02;22.75;;;20.85;;
10452;SDS011;5274;51.992;8.518;2024-03-17T08:25:27;23.63;;;21.73;;
10452;SDS011;5274;51.992;8.518;2024-03-17T08:27:53;23.37;;;21.20;;
10452;SDS011;5274;51.992;8.518;2024-03-17T08:30:19;23.23;;;21.20;;
10452;SDS011;5274;51.992;8.518;2024-03-17T08:32:44;23.38;;;21.48;;
10452;SDS011;5274;51.992;8.518;2024-03-17T08:35:10;23.60;;;21.37;;
10452;SDS011;5274;51.992;8.518;2024-03-17T08:37:36;22.88;;;21.08;;
10452;SDS011;5274;51.992;8.518;2024-03-17T08:40:01;22.27;;;20.30;;
10452;SDS011;5274;51.992;8.518;2024-03-17T08:42:27;23.75;;;21.75;;
10452;SDS011;5274;51.992;8.518;2024-03-17T08:44:53;23.60;;;21.50;;
10452;SDS011;5274;51.992;8.518;2024-03-17T08:47:19;23.40;;;21.40;;
10452;SDS011;5274;51.992;8.518;2024-03-17T08:49:44;22.10;;;20.30;;
10452;SDS011;5274;51.992;8.518;2024-03-17T08:52:10;22.42;;;20.45;;
10452;SDS011;5274;51.992;8.518;2024-03-17T08:54:36;23.07;;;21.10;;
10452;SDS011;5274;51.992;8.518;2024-03-17T08:57:02;22.35;;;20.50;;
10452;SDS011;5274;51.992;8.518;2024-03-17T08:59:27;22.43;;;20.43;;
10452;SDS011;5274;51.992;8.518;2024-03-17T09:01:53;22.45;;;20.65;;
10452;SDS011;5274;51.992;8.518;2024-03-17T09:04:18;21.83;;;20.03;;
10452;SDS011;5274;51.992;8.518;2024-03-17T09:06:44;22.17;;;20.30;;
10452;SDS011;5274;51.992;8.518;2024-03-17T09:09:09;22.65;;;20.70;;
10452;SDS011;5274;51.992;8.518;2024-03-17T09:11:36;21.80;;;20.07;;
10452;SDS011;5274;51.992;8.518;2024-03-17T09:14:02;21.60;;;20.00;;
10452;SDS011;5274;51.992;8.518;2024-03-17T09:16:27;21.87;;;20.07;;
10452;SDS011;5274;51.992;8.518;2024-03-17T09:18:55;21.77;;;20.08;;
10452;SDS011;5274;51.992;8.518;2024-03-17T09:21:20;21.73;;;20.00;;
10452;SDS011;5274;51.992;8.518;2024-03-17T09:23:47;21.50;;;19.80;;
10452;SDS011;5274;51.992;8.518;2024-03-17T09:26:12;21.43;;;19.90;;
10452;SDS011;5274;51.992;8.518;2024-03-17T09:28:42;22.25;;;20.25;;
10452;SDS011;5274;51.992;8.518;2024-03-17T09:31:11;21.52;;;19.88;;
10452;SDS011;5274;51.992;8.518;2024-03-17T09:33:37;22.73;;;21.02;;
10452;SDS011;5274;51.992;8.518;2024-03-17T09:36:04;21.77;;;20.17;;
10452;SDS011;5274;51.992;8.518;2024-03-17T09:38:31;22.30;;;20.60;;
10452;SDS011;5274;51.992;8.518;2024-03-17T09:40:58;20.55;;;19.02;;
10452;SDS011;5274;51.992;8.518;2024-03-17T09:43:26;22.42;;;20.70;;
10452;SDS011;5274;51.992;8.518;2024-03-17T09:45:52;21.10;;;19.52;;
10452;SDS011;5274;51.992;8.518;2024-03-17T09:48:22;21.15;;;19.55;;
10452;SDS011;5274;51.992;8.518;2024-03-17T09:53:25;21.17;;;19.48;;
10452;SDS011;5274;51.992;8.518;2024-03-17T09:55:54;21.05;;;19.35;;
10452;SDS011;5274;51.992;8.518;2024-03-17T09:58:28;20.00;;;18.60;;
10452;SDS011;5274;51.992;8.518;2024-03-17T10:00:53;21.55;;;19.95;;
10452;SDS011;5274;51.992;8.518;2024-03-17T10:06:05;20.88;;;19.30;;
10452;SDS011;5274;51.992;8.518;2024-03-17T10:08:31;20.30;;;18.80;;
10452;SDS011;5274;51.992;8.518;2024-03-17T10:10:59;20.38;;;18.88;;
10452;SDS011;5274;51.992;8.518;2024-03-17T10:13:24;20.87;;;19.27;;
10452;SDS011;5274;51.992;8.518;2024-03-17T10:15:50;19.75;;;18.40;;
10452;SDS011;5274;51.992;8.518;2024-03-17T10:18:22;20.73;;;19.17;;
10452;SDS011;5274;51.992;8.518;2024-03-17T10:20:48;19.45;;;18.10;;
10452;SDS011;5274;51.992;8.518;2024-03-17T10:23:20;20.23;;;18.63;;
10452;SDS011;5274;51.992;8.518;2024-03-17T10:25:45;21.70;;;20.07;;
10452;SDS011;5274;51.992;8.518;2024-03-17T10:28:11;21.00;;;19.40;;
10452;SDS011;5274;51.992;8.518;2024-03-17T10:30:37;21.65;;;20.13;;
10452;SDS011;5274;51.992;8.518;2024-03-17T10:33:04;21.88;;;20.27;;
10452;SDS011;5274;51.992;8.518;2024-03-17T10:35:34;21.90;;;20.40;;
10452;SDS011;5274;51.992;8.518;2024-03-17T10:38:03;21.58;;;20.05;;
10452;SDS011;5274;51.992;8.518;2024-03-17T10:40:30;20.92;;;19.33;;
10452;SDS011;5274;51.992;8.518;2024-03-17T10:42:59;20.50;;;19.10;;
10452;SDS011;5274;51.992;8.518;2024-03-17T10:45:25;21.13;;;19.63;;
10452;SDS011;5274;51.992;8.518;2024-03-17T10:47:52;20.63;;;19.15;;
10452;SDS011;5274;51.992;8.518;2024-03-17T10:50:21;20.90;;;19.35;;
10452;SDS011;5274;51.992;8.518;2024-03-17T10:52:49;21.55;;;19.95;;
10452;SDS011;5274;51.992;8.518;2024-03-17T10:55:23;20.65;;;19.15;;
10452;SDS011;5274;51.992;8.518;2024-03-17T10:57:51;20.98;;;19.48;;
10452;SDS011;5274;51.992;8.518;2024-03-17T11:00:21;21.52;;;19.83;;
10452;SDS011;5274;51.992;8.518;2024-03-17T11:02:48;22.17;;;20.20;;
10452;SDS011;5274;51.992;8.518;2024-03-17T11:05:23;21.17;;;19.70;;
10452;SDS011;5274;51.992;8.518;2024-03-17T11:07:51;22.73;;;21.00;;
10452;SDS011;5274;51.992;8.518;2024-03-17T11:12:56;21.30;;;19.77;;
10452;SDS011;5274;51.992;8.518;2024-03-17T11:17:52;21.02;;;19.48;;
10452;SDS011;5274;51.992;8.518;2024-03-17T11:20:22;21.38;;;19.88;;
10452;SDS011;5274;51.992;8.518;2024-03-17T11:22:50;22.08;;;20.40;;
10452;SDS011;5274;51.992;8.518;2024-03-17T11:27:54;22.03;;;20.27;;
10452;SDS011;5274;51.992;8.518;2024-03-17T11:47:02;20.63;;;19.20;;
10452;SDS011;5274;51.992;8.518;2024-03-17T11:49:33;19.70;;;18.40;;
10452;SDS011;5274;51.992;8.518;2024-03-17T11:52:02;19.95;;;18.60;;
10452;SDS011;5274;51.992;8.518;2024-03-17T11:54:29;20.23;;;18.92;;
10452;SDS011;5274;51.992;8.518;2024-03-17T11:57:01;21.07;;;19.47;;
10452;SDS011;5274;51.992;8.518;2024-03-17T11:59:34;20.00;;;18.70;;
10452;SDS011;5274;51.992;8.518;2024-03-17T12:01:59;21.25;;;19.85;;
10452;SDS011;5274;51.992;8.518;2024-03-17T12:04:27;21.88;;;20.45;;
10452;SDS011;5274;51.992;8.518;2024-03-17T12:06:55;22.27;;;20.70;;
10452;SDS011;5274;51.992;8.518;2024-03-17T12:09:28;21.55;;;19.90;;
10452;SDS011;5274;51.992;8.518;2024-03-17T12:11:59;21.30;;;19.80;;
10452;SDS011;5274;51.992;8.518;2024-03-17T12:14:34;21.05;;;19.65;;
10452;SDS011;5274;51.992;8.518;2024-03-17T12:17:08;20.70;;;19.40;;
10452;SDS011;5274;51.992;8.518;2024-03-17T12:19:35;20.02;;;18.75;;
10452;SDS011;5274;51.992;8.518;2024-03-17T12:22:02;19.40;;;18.10;;
10452;SDS011;5274;51.992;8.518;2024-03-17T12:24:30;19.77;;;18.65;;
10452;SDS011;5274;51.992;8.518;2024-03-17T12:27:00;19.67;;;18.48;;
10452;SDS011;5274;51.992;8.518;2024-03-17T12:31:58;20.27;;;19.02;;
10452;SDS011;5274;51.992;8.518;2024-03-17T12:34:27;21.10;;;19.70;;
10452;SDS011;5274;51.992;8.518;2024-03-17T12:36:54;21.33;;;19.83;;
10452;SDS011;5274;51.992;8.518;2024-03-17T12:39:21;20.33;;;19.02;;
10452;SDS011;5274;51.992;8.518;2024-03-17T12:42:01;20.77;;;19.30;;
10452;SDS011;5274;51.992;8.518;2024-03-17T12:44:30;20.52;;;19.23;;
10452;SDS011;5274;51.992;8.518;2024-03-17T12:46:57;20.80;;;19.50;;
10452;SDS011;5274;51.992;8.518;2024-03-17T12:49:27;20.38;;;18.95;;
10452;SDS011;5274;51.992;8.518;2024-03-17T12:51:54;20.93;;;19.47;;
10452;SDS011;5274;51.992;8.518;2024-03-17T12:54:21;20.02;;;18.75;;
10452;SDS011;5274;51.992;8.518;2024-03-17T12:56:49;20.08;;;18.77;;
10452;SDS011;5274;51.992;8.518;2024-03-17T12:59:37;21.00;;;19.60;;
10452;SDS011;5274;51.992;8.518;2024-03-17T13:02:25;21.60;;;20.15;;
10452;SDS011;5274;51.992;8.518;2024-03-17T13:07:39;21.17;;;19.70;;
10452;SDS011;5274;51.992;8.518;2024-03-17T13:10:05;21.40;;;19.90;;
10452;SDS011;5274;51.992;8.518;2024-03-17T13:12:32;22.10;;;20.60;;
10452;SDS011;5274;51.992;8.518;2024-03-17T13:14:59;22.13;;;20.63;;
10452;SDS011;5274;51.992;8.518;2024-03-17T13:17:25;21.15;;;19.75;;
10452;SDS011;5274;51.992;8.518;2024-03-17T13:19:50;21.10;;;19.57;;
10452;SDS011;5274;51.992;8.518;2024-03-17T13:22:16;21.30;;;19.90;;
10452;SDS011;5274;51.992;8.518;2024-03-17T13:24:41;21.80;;;20.27;;
10452;SDS011;5274;51.992;8.518;2024-03-17T13:27:07;21.98;;;20.40;;
10452;SDS011;5274;51.992;8.518;2024-03-17T13:29:33;23.03;;;21.43;;
10452;SDS011;5274;51.992;8.518;2024-03-17T13:32:03;21.98;;;20.48;;
10452;SDS011;5274;51.992;8.518;2024-03-17T13:34:29;23.15;;;21.45;;
10452;SDS011;5274;51.992;8.518;2024-03-17T13:36:55;22.33;;;20.83;;
10452;SDS011;5274;51.992;8.518;2024-03-17T13:39:20;22.83;;;21.23;;
10452;SDS011;5274;51.992;8.518;2024-03-17T13:41:47;22.47;;;20.80;;
10452;SDS011;5274;51.992;8.518;2024-03-17T13:44:14;21.45;;;20.00;;
10452;SDS011;5274;51.992;8.518;2024-03-17T13:46:40;21.10;;;19.70;;
10452;SDS011;5274;51.992;8.518;2024-03-17T13:49:09;20.95;;;19.55;;
10452;SDS011;5274;51.992;8.518;2024-03-17T13:51:35;20.95;;;19.55;;
10452;SDS011;5274;51.992;8.518;2024-03-17T13:54:01;21.60;;;20.10;;
10452;SDS011;5274;51.992;8.518;2024-03-17T13:56:27;22.30;;;20.63;;
10452;SDS011;5274;51.992;8.518;2024-03-17T13:58:53;22.35;;;20.75;;
10452;SDS011;5274;51.992;8.518;2024-03-17T14:01:19;21.73;;;20.23;;
10452;SDS011;5274;51.992;8.518;2024-03-17T14:03:45;21.48;;;19.98;;
10452;SDS011;5274;51.992;8.518;2024-03-17T14:06:10;21.65;;;20.17;;
10452;SDS011;5274;51.992;8.518;2024-03-17T14:08:36;22.40;;;20.80;;
10452;SDS011;5274;51.992;8.518;2024-03-17T14:11:02;21.85;;;20.45;;
10452;SDS011;5274;51.992;8.518;2024-03-17T14:13:29;22.40;;;20.90;;
10452;SDS011;5274;51.992;8.518;2024-03-17T14:15:55;21.95;;;20.38;;
10452;SDS011;5274;51.992;8.518;2024-03-17T14:18:21;20.90;;;19.60;;
10452;SDS011;5274;51.992;8.518;2024-03-17T14:20:46;21.20;;;19.80;;
10452;SDS011;5274;51.992;8.518;2024-03-17T14:23:12;20.60;;;19.17;;
10452;SDS011;5274;51.992;8.518;2024-03-17T14:25:38;21.05;;;19.55;;
10452;SDS011;5274;51.992;8.518;2024-03-17T14:28:04;21.53;;;20.07;;
10452;SDS011;5274;51.992;8.518;2024-03-17T14:30:30;20.70;;;19.25;;
10452;SDS011;5274;51.992;8.518;2024-03-17T14:32:58;21.42;;;19.83;;
10452;SDS011;5274;51.992;8.518;2024-03-17T14:35:23;20.88;;;19.45;;
10452;SDS011;5274;51.992;8.518;2024-03-17T14:37:51;20.63;;;19.33;;
10452;SDS011;5274;51.992;8.518;2024-03-17T14:40:17;20.23;;;18.83;;
10452;SDS011;5274;51.992;8.518;2024-03-17T14:42:51;19.40;;;18.20;;
10452;SDS011;5274;51.992;8.518;2024-03-17T14:45:20;20.03;;;18.80;;
10452;SDS011;5274;51.992;8.518;2024-03-17T14:47:47;20.63;;;19.23;;
10452;SDS011;5274;51.992;8.518;2024-03-17T14:50:13;19.73;;;18.52;;
10452;SDS011;5274;51.992;8.518;2024-03-17T14:52:39;20.83;;;19.23;;
10452;SDS011;5274;51.992;8.518;2024-03-17T14:55:08;20.33;;;19.10;;
10452;SDS011;5274;51.992;8.518;2024-03-17T14:57:37;20.90;;;19.40;;
10452;SDS011;5274;51.992;8.518;2024-03-17T15:00:07;20.57;;;18.97;;
10452;SDS011;5274;51.992;8.518;2024-03-17T15:02:41;20.13;;;18.83;;
10452;SDS011;5274;51.992;8.518;2024-03-17T15:05:07;20.83;;;19.40;;
10452;SDS011;5274;51.992;8.518;2024-03-17T15:07:33;20.50;;;19.27;;